createdAt,value
2018-11-07T00:00:48.503Z,70.40
2018-11-07T00:05:52.542Z,69.60
2018-11-07T00:10:56.886Z,69.00
2018-11-07T00:16:00.481Z,69.40
2018-11-07T00:21:04.995Z,70.10
2018-11-07T00:26:08.902Z,71.30
2018-11-07T00:31:16.068Z,72.40
2018-11-07T00:36:19.685Z,71.90
2018-11-07T00:41:23.873Z,71.70
2018-11-07T00:46:27.656Z,72.50
2018-11-07T00:51:31.433Z,72.20
2018-11-07T00:56:35.038Z,72.50
2018-11-07T01:01:38.590Z,77.50
2018-11-07T01:06:42.170Z,77.60
2018-11-07T01:11:46.743Z,75.60
2018-11-07T01:16:50.408Z,74.20
2018-11-07T01:21:53.945Z,74.70
2018-11-07T01:26:57.767Z,75.40
2018-11-07T01:32:02.161Z,76.10
2018-11-07T01:37:05.803Z,74.80
2018-11-07T01:42:09.530Z,74.80
2018-11-07T01:47:12.988Z,74.70
2018-11-07T01:52:16.609Z,73.00
2018-11-07T01:57:20.188Z,73.10
2018-11-07T02:02:24.056Z,73.70
2018-11-07T02:07:27.659Z,73.20
2018-11-07T02:12:36.092Z,72.60
2018-11-07T02:17:40.117Z,71.90
2018-11-07T02:22:44.523Z,72.90
2018-11-07T02:27:48.136Z,73.00
2018-11-07T02:32:52.067Z,73.90
2018-11-07T02:37:56.125Z,72.70
2018-11-07T02:42:59.924Z,72.50
2018-11-07T02:48:03.951Z,73.70
2018-11-07T02:53:08.504Z,73.70
2018-11-07T02:58:12.440Z,75.20
2018-11-07T03:03:16.042Z,75.00
2018-11-07T03:08:19.923Z,75.90
2018-11-07T03:13:24.626Z,78.80
2018-11-07T03:18:29.273Z,76.90
2018-11-07T03:23:32.917Z,74.30
2018-11-07T03:28:37.035Z,74.30
2018-11-07T03:33:40.736Z,74.60
2018-11-07T03:38:44.452Z,75.10
2018-11-07T03:43:48.888Z,74.50
2018-11-07T03:48:52.611Z,73.70
2018-11-07T03:53:56.200Z,73.00
2018-11-07T03:58:59.939Z,74.30
2018-11-07T04:04:03.589Z,76.80
2018-11-07T04:09:10.890Z,77.40
2018-11-07T04:14:14.479Z,75.80
2018-11-07T04:19:18.032Z,75.90
2018-11-07T04:24:21.895Z,77.00
2018-11-07T04:29:25.915Z,78.50
2018-11-07T04:34:30.640Z,78.90
2018-11-07T04:39:48.909Z,79.30
2018-11-07T04:44:52.663Z,78.50
2018-11-07T04:49:56.477Z,77.70
2018-11-07T04:55:05.721Z,77.00
2018-11-07T05:00:12.310Z,76.50
2018-11-07T05:05:16.340Z,76.10
2018-11-07T05:10:20.677Z,75.50
2018-11-07T05:15:27.002Z,75.30
2018-11-07T05:20:30.695Z,74.10
2018-11-07T05:25:34.567Z,73.90
2018-11-07T05:30:38.875Z,73.90
2018-11-07T05:35:42.683Z,73.60
2018-11-07T05:40:46.322Z,74.30
2018-11-07T05:45:49.939Z,75.20
2018-11-07T05:50:53.659Z,72.90
2018-11-07T05:55:57.243Z,73.20
2018-11-07T06:01:03.097Z,72.60
2018-11-07T06:06:06.715Z,73.30
2018-11-07T06:11:10.545Z,74.40
2018-11-07T06:16:14.247Z,75.30
2018-11-07T06:21:17.799Z,74.30
2018-11-07T06:26:21.356Z,73.00
2018-11-07T06:31:25.007Z,74.40
2018-11-07T06:36:29.256Z,76.20
2018-11-07T06:41:32.831Z,73.80
2018-11-07T06:46:36.411Z,73.50
2018-11-07T06:51:40.014Z,73.70
2018-11-07T06:56:43.622Z,74.00
2018-11-07T07:01:47.232Z,73.90
2018-11-07T07:06:50.842Z,73.60
2018-11-07T07:11:54.666Z,73.00
2018-11-07T07:16:58.196Z,72.80
2018-11-07T07:22:02.047Z,73.50
2018-11-07T07:27:05.821Z,74.30
2018-11-07T07:32:09.663Z,74.50
2018-11-07T07:37:13.469Z,74.50
2018-11-07T07:42:17.295Z,74.80
2018-11-07T07:47:20.883Z,75.70
2018-11-07T07:52:24.482Z,76.90
2018-11-07T07:57:28.075Z,77.50
2018-11-07T08:02:31.708Z,77.20
2018-11-07T08:07:35.605Z,76.90
2018-11-07T08:12:39.213Z,77.00
2018-11-07T08:17:43.605Z,76.00
2018-11-07T08:22:48.341Z,76.20
2018-11-07T08:27:51.981Z,77.00
2018-11-07T08:32:56.468Z,76.00
2018-11-07T08:38:00.111Z,77.00
2018-11-07T08:43:04.173Z,78.50
2018-11-07T08:48:08.499Z,81.80
2018-11-07T08:53:12.175Z,83.40
2018-11-07T08:58:16.868Z,82.80
2018-11-07T09:03:20.501Z,81.90
2018-11-07T09:08:24.056Z,79.20
2018-11-07T09:13:28.016Z,78.90
2018-11-07T09:18:31.611Z,79.30
2018-11-07T09:23:35.255Z,78.50
2018-11-07T09:28:38.884Z,77.70
2018-11-07T09:33:42.501Z,76.80
2018-11-07T09:38:46.762Z,74.90
2018-11-07T09:43:51.443Z,73.70
2018-11-07T09:48:55.062Z,70.10
2018-11-07T09:53:59.129Z,65.40
2018-11-07T09:59:02.981Z,57.40
2018-11-07T10:04:06.888Z,51.90
2018-11-07T10:09:11.542Z,49.30
2018-11-07T10:14:15.092Z,45.90
2018-11-07T10:19:18.708Z,43.30
2018-11-07T10:24:22.281Z,42.30
2018-11-07T10:29:26.416Z,41.30
2018-11-07T10:34:29.646Z,40.00
2018-11-07T10:39:33.269Z,42.20
2018-11-07T10:44:36.868Z,42.40
2018-11-07T10:49:40.480Z,42.60
2018-11-07T10:54:44.288Z,42.30
2018-11-07T10:59:47.925Z,43.10
2018-11-07T11:04:51.560Z,43.50
2018-11-07T11:09:55.215Z,44.50
2018-11-07T11:14:58.791Z,45.00
2018-11-07T11:20:02.447Z,45.60
2018-11-07T11:25:07.409Z,46.30
2018-11-07T11:30:11.439Z,46.20
2018-11-07T11:35:21.747Z,45.60
2018-11-07T11:40:26.046Z,45.70
2018-11-07T11:45:30.464Z,44.90
2018-11-07T11:55:37.319Z,45.70
2018-11-07T12:00:41.171Z,46.70
2018-11-07T12:05:44.722Z,46.70
2018-11-07T12:10:49.027Z,46.80
2018-11-07T12:15:52.611Z,47.70
2018-11-07T12:20:56.157Z,45.10
2018-11-07T12:25:59.708Z,46.00
2018-11-07T12:31:03.289Z,45.00
2018-11-07T12:36:06.932Z,47.40
2018-11-07T12:46:13.800Z,46.80
2018-11-07T12:51:18.230Z,45.20
2018-11-07T12:56:22.452Z,45.00
2018-11-07T13:01:30.908Z,44.90
2018-11-07T13:06:36.392Z,46.00
2018-11-07T13:11:41.415Z,43.50
2018-11-07T13:21:49.507Z,42.80
2018-11-07T13:26:53.210Z,43.00
2018-11-07T13:31:56.784Z,42.90
2018-11-07T13:42:03.757Z,42.20
2018-11-07T13:47:07.329Z,43.40
2018-11-07T13:52:11.210Z,43.40
2018-11-07T13:57:14.794Z,43.70
2018-11-07T14:02:18.377Z,43.20
2018-11-07T14:07:22.339Z,44.00
2018-11-07T14:12:26.223Z,44.80
2018-11-07T14:17:29.855Z,44.30
2018-11-07T14:22:33.410Z,43.20
2018-11-07T14:27:37.204Z,44.60
2018-11-07T14:32:57.126Z,45.20
2018-11-07T14:38:00.729Z,45.50
2018-11-07T14:43:04.524Z,45.40
2018-11-07T14:48:08.115Z,44.40
2018-11-07T14:53:11.763Z,44.60
2018-11-07T14:58:15.335Z,44.70
2018-11-07T15:03:22.610Z,44.50
2018-11-07T15:08:27.312Z,45.90
2018-11-07T15:13:30.915Z,46.10
2018-11-07T15:18:34.619Z,47.80
2018-11-07T15:23:38.243Z,49.10
2018-11-07T15:28:42.337Z,49.80
2018-11-07T15:33:45.983Z,49.70
2018-11-07T15:38:49.574Z,50.30
2018-11-07T15:43:53.176Z,50.20
2018-11-07T15:48:56.796Z,50.60
2018-11-07T15:54:00.663Z,50.60
2018-11-07T15:59:05.831Z,51.00
2018-11-07T16:04:09.636Z,51.10
2018-11-07T16:09:13.216Z,51.50
2018-11-07T16:14:16.871Z,52.10
2018-11-07T16:19:20.552Z,52.30
2018-11-07T16:24:24.804Z,52.70
2018-11-07T16:29:28.473Z,53.50
2018-11-07T16:34:32.122Z,53.70
2018-11-07T16:39:37.457Z,53.40
2018-11-07T16:44:41.042Z,53.50
2018-11-07T16:49:45.419Z,54.10
2018-11-07T16:54:49.044Z,53.90
2018-11-07T17:00:55.708Z,54.00
2018-11-07T17:05:59.436Z,54.00
2018-11-07T17:11:03.228Z,54.40
2018-11-07T17:16:07.020Z,54.70
2018-11-07T17:21:11.512Z,55.20
2018-11-07T17:26:17.044Z,55.60
2018-11-07T17:31:20.906Z,56.10
2018-11-07T17:36:24.596Z,56.50
2018-11-07T17:41:28.306Z,56.80
2018-11-07T17:46:32.135Z,56.90
2018-11-07T17:51:36.246Z,56.90
2018-11-07T17:56:40.717Z,57.20
2018-11-07T18:01:44.334Z,57.90
2018-11-07T18:06:48.040Z,57.90
2018-11-07T18:11:52.478Z,57.80
2018-11-07T18:16:56.444Z,58.10
2018-11-07T18:22:00.227Z,59.10
2018-11-07T18:27:04.118Z,60.30
2018-11-07T18:32:07.774Z,61.10
2018-11-07T18:37:12.038Z,60.70
2018-11-07T18:42:15.631Z,60.60
2018-11-07T18:47:19.195Z,60.90
2018-11-07T18:52:23.714Z,60.70
2018-11-07T18:57:27.284Z,60.30
2018-11-07T19:02:30.919Z,60.30
2018-11-07T19:07:35.063Z,60.30
2018-11-07T19:12:38.922Z,60.20
2018-11-07T19:17:43.699Z,60.10
2018-11-07T19:22:47.472Z,60.10
2018-11-07T19:27:52.025Z,60.00
2018-11-07T19:32:55.800Z,60.90
2018-11-07T19:37:59.924Z,61.10
2018-11-07T19:43:03.706Z,61.40
2018-11-07T19:48:07.651Z,61.80
2018-11-07T19:53:12.198Z,62.10
2018-11-07T19:58:16.603Z,62.10
2018-11-07T20:03:24.526Z,61.70
2018-11-07T20:08:28.176Z,61.90
2018-11-07T20:13:32.147Z,61.90
2018-11-07T20:18:36.357Z,62.00
2018-11-07T20:23:41.218Z,62.60
2018-11-07T20:28:45.033Z,63.00
2018-11-07T20:33:48.615Z,63.20
2018-11-07T20:38:52.165Z,63.70
2018-11-07T20:43:56.276Z,64.00
2018-11-07T20:49:00.247Z,64.10
2018-11-07T20:54:04.484Z,64.20
2018-11-07T20:59:08.028Z,64.30
2018-11-07T21:04:12.695Z,64.90
2018-11-07T21:09:16.555Z,65.10
2018-11-07T21:14:20.228Z,64.40
2018-11-07T21:19:24.555Z,63.60
2018-11-07T21:24:28.453Z,63.90
2018-11-07T21:29:32.946Z,64.60
2018-11-07T21:34:37.054Z,65.30
2018-11-07T21:39:40.793Z,65.50
2018-11-07T21:44:44.402Z,65.90
2018-11-07T21:49:48.555Z,65.90
2018-11-07T21:54:53.042Z,66.00
2018-11-07T21:59:56.855Z,66.40
2018-11-07T22:05:00.404Z,66.90
2018-11-07T22:10:04.593Z,67.10
2018-11-07T22:15:08.796Z,67.40
2018-11-07T22:20:18.028Z,67.60
2018-11-07T22:25:27.504Z,67.70
2018-11-07T22:30:31.064Z,67.90
2018-11-07T22:35:34.668Z,68.30
2018-11-07T22:40:38.239Z,68.70
2018-11-07T22:45:42.159Z,68.60
2018-11-07T22:50:45.746Z,68.30
2018-11-07T22:55:49.534Z,68.50
2018-11-07T23:01:02.429Z,68.60
2018-11-07T23:06:06.353Z,69.20
2018-11-07T23:11:10.278Z,70.10
2018-11-07T23:16:13.872Z,70.90
2018-11-07T23:21:17.460Z,71.60
2018-11-07T23:26:24.231Z,71.50
2018-11-07T23:31:28.963Z,71.30
2018-11-07T23:36:32.614Z,72.10
2018-11-07T23:41:36.543Z,72.40
2018-11-07T23:46:41.970Z,72.40
2018-11-07T23:51:50.440Z,72.20
2018-11-07T23:56:54.119Z,72.20
